Time;durP1;ratioP1;P1;durP2;ratioP2;P2;SDS_P1;SDS_P2;PMS_P1;PMS_P2;Temp;Humidity;BMP_temperature;BMP_pressure;BME280_temperature;BME280_humidity;BME280_pressure;Samples;Min_cycle;Max_cycle;Signal;HPM_P1;HPM_P2
2023/04/13 00:02:02;;;;;;;0.10;0.10;;;;;;;;;;6212670;23;19997;-94
2023/04/13 00:04:30;;;;;;;0.10;0.10;;;;;;;;;;6214498;23;19997;-95
2023/04/13 00:06:57;;;;;;;0.10;0.10;;;;;;;;;;6215111;23;20000;-94
2023/04/13 00:09:24;;;;;;;0.10;0.10;;;;;;;;;;6213140;23;20016;-95
2023/04/13 00:11:50;;;;;;;0.10;0.10;;;;;;;;;;6214317;23;20198;-94
2023/04/13 00:14:19;;;;;;;0.10;0.10;;;;;;;;;;6216483;23;20011;-93
2023/04/13 00:16:46;;;;;;;0.10;0.10;;;;;;;;;;6213746;23;19989;-94
2023/04/13 00:19:23;;;;;;;0.10;0.10;;;6.50;99.90;;;;;;6214696;23;20057;-94
2023/04/13 00:21:49;;;;;;;0.10;0.10;;;;;;;;;;6214247;23;20004;-95
2023/04/13 00:24:15;;;;;;;0.10;0.10;;;;;;;;;;6214575;23;19996;-94
2023/04/13 00:26:41;;;;;;;0.10;0.10;;;;;;;;;;6215139;23;20001;-94
2023/04/13 00:29:07;;;;;;;0.10;0.10;;;;;;;;;;6215048;23;20002;-95
2023/04/13 00:31:32;;;;;;;0.10;0.10;;;;;;;;;;6214091;23;19989;-93
2023/04/13 00:33:58;;;;;;;0.10;0.10;;;;;;;;;;6213862;23;20004;-94
2023/04/13 00:36:26;;;;;;;0.10;0.10;;;;;;;;;;6215160;23;19992;-94
2023/04/13 00:38:53;;;;;;;0.10;0.10;;;;;;;;;;6215787;23;20019;-95
2023/04/13 00:41:19;;;;;;;0.10;0.10;;;;;;;;;;6214869;23;20019;-95
2023/04/13 00:43:54;;;;;;;0.10;0.10;;;;;;;;;;6213645;23;20004;-94
2023/04/13 00:46:21;;;;;;;0.10;0.10;;;;;;;;;;6213177;23;20008;-93
2023/04/13 00:48:47;;;;;;;0.10;0.10;;;;;;;;;;6212767;23;19997;-94
2023/04/13 00:51:16;;;;;;;0.00;0.00;;;6.50;99.90;;;;;;6215160;23;19989;-94
2023/04/13 00:53:48;;;;;;;0.20;0.20;;;6.50;99.90;;;;;;6213773;23;20027;-93
2023/04/13 00:56:14;;;;;;;0.10;0.10;;;6.40;99.90;;;;;;6210883;23;20005;-93
2023/04/13 00:58:41;;;;;;;0.10;0.10;;;;;;;;;;6212874;23;20162;-94
2023/04/13 01:01:07;;;;;;;0.10;0.10;;;;;;;;;;6215848;23;19985;-95
2023/04/13 01:03:33;;;;;;;0.10;0.10;;;;;;;;;;6214079;23;20080;-93
2023/04/13 01:06:16;;;;;;;0.10;0.10;;;6.40;99.90;;;;;;6216299;23;20012;-95
2023/04/13 01:09:07;;;;;;;0.00;0.00;;;6.30;99.90;;;;;;6214971;23;20008;-96
2023/04/13 01:11:42;;;;;;;0.10;0.10;;;6.30;99.90;;;;;;6197774;23;19989;-95
2023/04/13 01:14:17;;;;;;;0.10;0.10;;;6.30;99.90;;;;;;6215857;23;20069;-94
2023/04/13 01:16:49;;;;;;;0.10;0.10;;;6.30;99.90;;;;;;6213423;23;19993;-95
2023/04/13 01:19:42;;;;;;;0.10;0.10;;;6.30;99.90;;;;;;6214233;23;19988;-94
2023/04/13 01:22:13;;;;;;;0.10;0.10;;;6.30;99.90;;;;;;6218100;22;20048;-95
2023/04/13 01:25:16;;;;;;;0.10;0.10;;;6.30;99.90;;;;;;6210442;23;20020;-92
2023/04/13 01:27:50;;;;;;;0.10;0.10;;;6.20;99.90;;;;;;6212160;23;19986;-94
2023/04/13 01:30:21;;;;;;;0.10;0.10;;;6.30;99.90;;;;;;6211530;23;20008;-94
2023/04/13 01:32:53;;;;;;;0.10;0.10;;;6.30;99.90;;;;;;6215493;23;20020;-92
2023/04/13 01:35:21;;;;;;;0.10;0.10;;;6.30;99.90;;;;;;6215229;23;20276;-94
2023/04/13 01:37:47;;;;;;;0.10;0.10;;;;;;;;;;6215474;23;20088;-94
2023/04/13 01:40:13;;;;;;;0.10;0.10;;;;;;;;;;6212532;23;20008;-94
2023/04/13 01:42:40;;;;;;;0.10;0.10;;;;;;;;;;6214207;23;20309;-94
2023/04/13 01:45:34;;;;;;;0.10;0.10;;;6.20;99.90;;;;;;6213908;23;20052;-94
2023/04/13 01:48:08;;;;;;;0.10;0.10;;;6.20;99.90;;;;;;6215936;23;20008;-94
2023/04/13 01:50:38;;;;;;;0.10;0.10;;;6.20;99.90;;;;;;6214992;23;20043;-92
2023/04/13 01:53:10;;;;;;;0.10;0.10;;;6.30;99.90;;;;;;6216081;23;19996;-94
2023/04/13 01:55:37;;;;;;;0.00;0.00;;;;;;;;;;6214055;23;20094;-92
2023/04/13 01:58:04;;;;;;;0.10;0.10;;;6.30;99.90;;;;;;6215596;23;20012;-94
2023/04/13 02:00:34;;;;;;;0.10;0.10;;;;;;;;;;6212022;23;20016;-95
2023/04/13 02:03:03;;;;;;;0.10;0.10;;;;;;;;;;6215492;23;20016;-94
2023/04/13 02:05:29;;;;;;;0.10;0.10;;;;;;;;;;6214803;23;20023;-94
2023/04/13 02:07:54;;;;;;;0.10;0.10;;;;;;;;;;6215636;23;19996;-94
2023/04/13 02:10:21;;;;;;;0.10;0.10;;;;;;;;;;6212512;23;20031;-94
2023/04/13 02:12:47;;;;;;;0.10;0.10;;;;;;;;;;6214511;23;20016;-94
2023/04/13 02:15:13;;;;;;;0.10;0.10;;;;;;;;;;6214828;23;19989;-94
2023/04/13 02:17:40;;;;;;;0.10;0.10;;;;;;;;;;6215158;23;19999;-94
2023/04/13 02:20:10;;;;;;;0.10;0.10;;;6.30;99.90;;;;;;6213402;23;20012;-93
2023/04/13 02:22:35;;;;;;;;;;;6.30;99.90;;;;;;6210278;23;20019;-94
2023/04/13 02:25:01;;;;;;;0.10;0.10;;;;;;;;;;6213322;23;19908;-94
2023/04/13 02:27:30;;;;;;;0.10;0.10;;;;;;;;;;6214527;23;20028;-94
2023/04/13 02:29:56;;;;;;;0.10;0.10;;;;;;;;;;6214372;23;19997;-94
2023/04/13 02:32:23;;;;;;;0.10;0.10;;;;;;;;;;6213667;23;20028;-94
2023/04/13 02:34:49;;;;;;;0.10;0.10;;;;;;;;;;6214168;23;20007;-95
2023/04/13 02:37:15;;;;;;;0.00;0.00;;;;;;;;;;6214957;23;20021;-95
2023/04/13 02:39:41;;;;;;;0.10;0.10;;;;;;;;;;6214400;23;20008;-94
2023/04/13 02:42:09;;;;;;;0.10;0.10;;;;;;;;;;6212786;23;20067;-94
2023/04/13 02:44:37;;;;;;;0.10;0.10;;;6.70;99.90;;;;;;6213985;23;20064;-92
2023/04/13 02:47:03;;;;;;;0.10;0.10;;;;;;;;;;6238587;22;20052;-95
2023/04/13 02:49:29;;;;;;;0.03;0.03;;;;;;;;;;6213138;23;20094;-94
2023/04/13 02:51:55;;;;;;;0.00;0.00;;;;;;;;;;6214708;23;20000;-93
2023/04/13 02:54:21;;;;;;;0.00;0.00;;;;;;;;;;6213249;23;20057;-94
2023/04/13 02:56:48;;;;;;;0.10;0.10;;;;;;;;;;6213462;23;19989;-95
2023/04/13 02:59:15;;;;;;;0.10;0.10;;;;;;;;;;6214919;23;20000;-93
2023/04/13 03:01:41;;;;;;;0.10;0.10;;;;;;;;;;6214368;23;20060;-93
2023/04/13 03:04:08;;;;;;;0.00;0.00;;;;;;;;;;6213321;23;19993;-95
2023/04/13 03:06:33;;;;;;;0.00;0.00;;;;;;;;;;6213610;23;20019;-93
2023/04/13 03:09:00;;;;;;;0.10;0.10;;;;;;;;;;6215265;23;20016;-94
2023/04/13 03:11:26;;;;;;;0.10;0.10;;;;;;;;;;6214411;23;20045;-95
2023/04/13 03:13:52;;;;;;;0.05;0.05;;;;;;;;;;6214040;23;20004;-94
2023/04/13 03:16:19;;;;;;;0.10;0.10;;;;;;;;;;6214655;23;20000;-94
2023/04/13 03:18:45;;;;;;;0.10;0.10;;;;;;;;;;6214172;23;20001;-94
2023/04/13 03:21:14;;;;;;;0.10;0.10;;;;;;;;;;6213761;23;20016;-94
2023/04/13 03:23:40;;;;;;;0.10;0.10;;;;;;;;;;6214585;23;19996;-94
2023/04/13 03:26:06;;;;;;;0.03;0.03;;;;;;;;;;6214156;23;20328;-95
2023/04/13 03:28:32;;;;;;;0.10;0.10;;;;;;;;;;6214710;23;19993;-94
2023/04/13 03:30:58;;;;;;;0.10;0.10;;;;;;;;;;6215014;23;20012;-95
2023/04/13 03:33:24;;;;;;;0.10;0.10;;;;;;;;;;6214460;23;20012;-94
2023/04/13 03:35:50;;;;;;;0.10;0.10;;;;;;;;;;6215004;23;20011;-94
2023/04/13 03:38:16;;;;;;;0.10;0.10;;;;;;;;;;6213834;23;19996;-93
2023/04/13 03:40:42;;;;;;;0.10;0.10;;;;;;;;;;6212884;23;19988;-93
2023/04/13 03:43:09;;;;;;;0.10;0.10;;;;;;;;;;6208619;23;20069;-94
2023/04/13 03:45:34;;;;;;;0.10;0.10;;;;;;;;;;6214217;23;19996;-92
2023/04/13 03:48:00;;;;;;;0.10;0.10;;;;;;;;;;6215084;23;20064;-94
2023/04/13 03:50:27;;;;;;;0.10;0.10;;;;;;;;;;6213271;23;20103;-94
2023/04/13 03:52:53;;;;;;;0.10;0.10;;;;;;;;;;6214999;22;20031;-94
2023/04/13 03:55:19;;;;;;;0.10;0.10;;;;;;;;;;6213754;22;20013;-94
2023/04/13 03:57:46;;;;;;;0.10;0.10;;;;;;;;;;6213155;23;20016;-94
2023/04/13 04:00:13;;;;;;;0.10;0.10;;;;;;;;;;6211258;23;20048;-94
2023/04/13 04:02:39;;;;;;;0.10;0.10;;;;;;;;;;6212749;23;20043;-94
2023/04/13 04:05:05;;;;;;;0.10;0.10;;;;;;;;;;6212301;23;20016;-94
2023/04/13 04:07:31;;;;;;;0.05;0.05;;;;;;;;;;6213689;23;20015;-93
2023/04/13 04:09:57;;;;;;;0.00;0.00;;;;;;;;;;6211460;23;20015;-94
2023/04/13 04:12:26;;;;;;;0.00;0.00;;;;;;;;;;6212216;23;20004;-94
2023/04/13 04:14:51;;;;;;;0.00;0.00;;;;;;;;;;6214272;23;19996;-94
2023/04/13 04:17:17;;;;;;;0.10;0.10;;;;;;;;;;6212840;23;20039;-95
2023/04/13 04:19:43;;;;;;;0.00;0.00;;;;;;;;;;6215178;23;19985;-94
2023/04/13 04:22:09;;;;;;;0.10;0.10;;;;;;;;;;6213976;23;20008;-95
2023/04/13 04:24:35;;;;;;;0.10;0.10;;;;;;;;;;6213088;23;19993;-93
2023/04/13 04:27:04;;;;;;;0.10;0.10;;;;;;;;;;6212820;23;20342;-94
2023/04/13 04:29:33;;;;;;;0.10;0.10;;;;;;;;;;6212550;23;19984;-94
2023/04/13 04:32:04;;;;;;;0.10;0.10;;;7.40;99.90;;;;;;6213452;23;20048;-94
2023/04/13 04:34:30;;;;;;;0.10;0.10;;;;;;;;;;6214357;23;20003;-94
2023/04/13 04:36:56;;;;;;;0.10;0.10;;;;;;;;;;6213832;23;20035;-94
2023/04/13 04:39:22;;;;;;;0.10;0.10;;;;;;;;;;6213906;23;20000;-94
2023/04/13 04:41:53;;;;;;;0.10;0.10;;;7.40;99.90;;;;;;6213957;23;20056;-94
2023/04/13 04:44:19;;;;;;;;;;;7.40;99.90;;;;;;6213945;23;20028;-95
2023/04/13 04:46:47;;;;;;;0.10;0.10;;;;;;;;;;6213683;23;19892;-93
2023/04/13 04:49:13;;;;;;;0.10;0.10;;;;;;;;;;6211286;23;20012;-94
2023/04/13 04:51:39;;;;;;;0.00;0.00;;;;;;;;;;6215857;23;20042;-93
2023/04/13 04:54:06;;;;;;;0.00;0.00;;;;;;;;;;6215355;23;20076;-93
2023/04/13 04:56:32;;;;;;;0.10;0.10;;;;;;;;;;6215194;23;19993;-94
2023/04/13 04:58:58;;;;;;;0.10;0.10;;;;;;;;;;6215997;23;20064;-95
2023/04/13 05:01:25;;;;;;;0.10;0.10;;;;;;;;;;6216367;23;19992;-94
2023/04/13 05:03:52;;;;;;;0.10;0.10;;;7.70;99.90;;;;;;6215625;23;19992;-94
2023/04/13 05:06:18;;;;;;;0.10;0.10;;;;;;;;;;6216648;23;20060;-95
2023/04/13 05:08:44;;;;;;;0.10;0.10;;;;;;;;;;6215150;23;20027;-95
2023/04/13 05:11:10;;;;;;;0.10;0.10;;;;;;;;;;6213574;23;19992;-95
2023/04/13 05:13:36;;;;;;;0.10;0.10;;;;;;;;;;6212395;23;19997;-91
2023/04/13 05:16:04;;;;;;;0.05;0.05;;;;;;;;;;6214091;23;20031;-94
2023/04/13 05:18:31;;;;;;;0.10;0.10;;;;;;;;;;6213569;23;20047;-93
2023/04/13 05:20:58;;;;;;;0.10;0.10;;;;;;;;;;6210818;23;19992;-93
2023/04/13 05:23:24;;;;;;;0.10;0.10;;;;;;;;;;6212606;23;19997;-94
2023/04/13 05:25:51;;;;;;;0.10;0.10;;;;;;;;;;6214560;23;20003;-94
2023/04/13 05:28:17;;;;;;;0.10;0.10;;;;;;;;;;6215510;23;20012;-95
2023/04/13 05:30:43;;;;;;;0.10;0.10;;;;;;;;;;6214756;23;20004;-94
2023/04/13 05:33:10;;;;;;;0.10;0.10;;;;;;;;;;6212749;23;20076;-94
2023/04/13 05:35:38;;;;;;;0.10;0.10;;;;;;;;;;6211900;23;20019;-92
2023/04/13 05:38:04;;;;;;;0.10;0.10;;;;;;;;;;6213507;23;19995;-94
2023/04/13 05:40:32;;;;;;;0.10;0.10;;;;;;;;;;6213896;23;20035;-95
2023/04/13 05:42:58;;;;;;;0.10;0.10;;;;;;;;;;6215050;23;20001;-94
2023/04/13 05:45:24;;;;;;;0.10;0.10;;;;;;;;;;6210900;23;20011;-95
2023/04/13 05:47:50;;;;;;;0.10;0.10;;;;;;;;;;6212506;23;20004;-91
2023/04/13 05:50:16;;;;;;;0.10;0.10;;;;;;;;;;6209911;23;20095;-93
2023/04/13 05:52:42;;;;;;;0.10;0.10;;;;;;;;;;6207922;23;20009;-93
2023/04/13 05:55:09;;;;;;;0.10;0.10;;;;;;;;;;6209963;23;20012;-93
2023/04/13 05:57:35;;;;;;;0.10;0.10;;;;;;;;;;6207978;23;20111;-94
2023/04/13 06:00:01;;;;;;;0.10;0.10;;;;;;;;;;6211455;23;19988;-93
2023/04/13 06:02:26;;;;;;;0.10;0.10;;;;;;;;;;6210839;23;20026;-95
2023/04/13 06:04:53;;;;;;;0.10;0.10;;;;;;;;;;6211488;23;20008;-92
2023/04/13 06:07:20;;;;;;;0.10;0.10;;;8.50;99.90;;;;;;6209745;23;20024;-93
2023/04/13 06:09:46;;;;;;;0.10;0.10;;;;;;;;;;6212673;23;20019;-94
2023/04/13 06:12:12;;;;;;;0.10;0.10;;;;;;;;;;6213181;23;20339;-93
2023/04/13 06:14:40;;;;;;;0.10;0.10;;;8.40;99.90;;;;;;6214518;23;19997;-92
2023/04/13 06:17:06;;;;;;;0.10;0.10;;;;;;;;;;6215163;23;19996;-94
2023/04/13 06:19:32;;;;;;;0.10;0.10;;;;;;;;;;6211544;23;20016;-95
2023/04/13 06:21:58;;;;;;;0.10;0.10;;;;;;;;;;6211628;23;19984;-94
2023/04/13 06:24:24;;;;;;;0.10;0.10;;;;;;;;;;6214614;23;20024;-94
2023/04/13 06:26:51;;;;;;;0.10;0.10;;;;;;;;;;6215557;23;19993;-95
2023/04/13 13:47:14;;;;;;;0.00;0.00;;;;;;;;;;6267243;22;1750947;-89
2023/04/13 13:49:40;;;;;;;0.00;0.00;;;;;;;;;;6307219;22;20004;-90
2023/04/13 13:52:07;;;;;;;0.00;0.00;;;;;;;;;;6307619;22;20014;-91
2023/04/13 13:54:33;;;;;;;0.00;0.00;;;;;;;;;;6277605;22;19983;-91
2023/04/13 13:56:59;;;;;;;0.00;0.00;;;;;;;;;;6276637;22;20015;-91
2023/04/13 13:59:25;;;;;;;0.00;0.00;;;;;;;;;;6276684;22;19988;-90
2023/04/13 14:01:51;;;;;;;0.00;0.00;;;;;;;;;;6277055;22;20012;-90
2023/04/13 14:04:17;;;;;;;0.00;0.00;;;;;;;;;;6276927;22;19991;-90
2023/04/13 14:06:42;;;;;;;0.00;0.00;;;;;;;;;;6276011;22;20012;-88
2023/04/13 14:09:08;;;;;;;0.00;0.00;;;;;;;;;;6275377;22;20004;-91
2023/04/13 14:11:35;;;;;;;0.00;0.00;;;;;;;;;;6275290;22;19988;-89
2023/04/13 14:14:01;;;;;;;0.00;0.00;;;;;;;;;;6276518;22;20038;-91
2023/04/13 14:16:26;;;;;;;0.00;0.00;;;14.90;95.20;;;;;;6276935;22;20008;-90
2023/04/13 14:18:52;;;;;;;0.00;0.00;;;;;;;;;;6276973;22;20051;-90
2023/04/13 14:21:20;;;;;;;0.00;0.00;;;;;;;;;;6276709;22;20067;-89
2023/04/13 14:23:47;;;;;;;0.00;0.00;;;15.20;94.30;;;;;;6275796;22;20011;-90
2023/04/13 14:26:14;;;;;;;0.00;0.00;;;;;;;;;;6276942;22;20017;-90
2023/04/13 14:28:40;;;;;;;0.00;0.00;;;;;;;;;;6276786;22;20006;-90
2023/04/13 14:31:06;;;;;;;0.00;0.00;;;;;;;;;;6276272;22;19995;-92
2023/04/13 14:33:31;;;;;;;0.00;0.00;;;;;;;;;;6276807;22;20023;-91
2023/04/13 14:35:57;;;;;;;0.00;0.00;;;;;;;;;;6276434;22;19999;-90
2023/04/13 14:38:23;;;;;;;0.00;0.00;;;;;;;;;;6276261;22;20007;-89
2023/04/13 14:40:50;;;;;;;0.00;0.00;;;;;;;;;;6276481;22;20008;-91
2023/04/13 14:43:16;;;;;;;0.00;0.00;;;;;;;;;;6276640;22;20008;-91
2023/04/13 14:45:42;;;;;;;0.00;0.00;;;;;;;;;;6274987;22;20050;-89
2023/04/13 14:48:08;;;;;;;0.00;0.00;;;;;;;;;;6276160;22;19992;-90
2023/04/13 14:50:37;;;;;;;0.00;0.00;;;14.70;93.20;;;;;;6276670;22;19998;-90
2023/04/13 14:53:06;;;;;;;0.00;0.00;;;;;;;;;;6277881;22;20075;-91
2023/04/13 14:55:32;;;;;;;0.00;0.00;;;;;;;;;;6278451;22;20008;-90
2023/04/13 14:57:58;;;;;;;0.00;0.00;;;;;;;;;;6278218;22;19994;-91
2023/04/13 15:00:40;;;;;;;0.00;0.00;;;;;;;;;;6278962;22;19988;-90
2023/04/13 15:03:11;;;;;;;0.00;0.00;;;14.20;93.70;;;;;;6278140;22;19998;-91
2023/04/13 15:05:41;;;;;;;0.00;0.00;;;14.10;93.40;;;;;;6278018;22;19992;-89
2023/04/13 15:08:07;;;;;;;0.00;0.00;;;;;;;;;;6276181;22;19992;-89
2023/04/13 15:10:34;;;;;;;0.00;0.00;;;13.70;93.60;;;;;;6277743;22;20020;-91
2023/04/13 15:13:01;;;;;;;0.00;0.00;;;13.70;93.90;;;;;;6276972;22;19999;-91
2023/04/13 15:15:27;;;;;;;0.00;0.00;;;;;;;;;;6277395;22;20367;-91
2023/04/13 15:17:53;;;;;;;0.00;0.00;;;;;;;;;;6277627;22;20333;-90
2023/04/13 15:20:19;;;;;;;0.00;0.00;;;;;;;;;;6276281;22;20040;-90
2023/04/13 15:22:45;;;;;;;0.00;0.00;;;;;;;;;;6277315;22;20238;-90
2023/04/13 15:25:11;;;;;;;0.10;0.10;;;;;;;;;;6277649;22;19988;-93
2023/04/13 15:27:37;;;;;;;0.10;0.10;;;;;;;;;;6277502;22;20056;-92
2023/04/13 15:30:03;;;;;;;0.00;0.00;;;;;;;;;;6276295;22;20016;-92
2023/04/13 15:32:35;;;;;;;0.00;0.00;;;11.40;99.90;;;;;;6275506;22;20016;-91
2023/04/13 15:35:01;;;;;;;0.00;0.00;;;;;;;;;;6275452;22;20014;-92
2023/04/13 15:37:27;;;;;;;0.00;0.00;;;;;;;;;;6276915;22;20098;-92
2023/04/13 15:39:55;;;;;;;0.00;0.00;;;11.10;99.90;;;;;;6276749;22;20019;-91
2023/04/13 15:42:21;;;;;;;0.00;0.00;;;11.20;99.90;;;;;;6275066;22;20014;-92
2023/04/13 15:44:47;;;;;;;0.00;0.00;;;11.00;99.90;;;;;;6276229;22;20040;-89
2023/04/13 15:47:13;;;;;;;0.00;0.00;;;;;;;;;;6276989;22;20006;-91
2023/04/13 15:49:39;;;;;;;0.00;0.00;;;;;;;;;;6276112;22;20000;-93
2023/04/13 15:52:04;;;;;;;0.00;0.00;;;12.10;99.90;;;;;;6273600;22;20043;-91
2023/04/13 15:54:30;;;;;;;0.00;0.00;;;14.00;99.90;;;;;;6276335;22;19999;-91
2023/04/13 15:56:55;;;;;;;0.00;0.00;;;12.90;99.90;;;;;;6274822;22;19991;-90
2023/04/13 15:59:21;;;;;;;0.00;0.00;;;;;;;;;;6277286;22;20011;-91
2023/04/13 16:01:48;;;;;;;0.00;0.00;;;13.30;99.90;;;;;;6277007;22;20043;-91
2023/04/13 16:04:14;;;;;;;0.00;0.00;;;13.30;99.90;;;;;;6275967;22;19992;-90
2023/04/13 16:06:41;;;;;;;0.00;0.00;;;13.30;99.90;;;;;;6276187;22;20010;-92
2023/04/13 16:09:10;;;;;;;0.00;0.00;;;13.50;99.90;;;;;;6275229;22;19988;-91
2023/04/13 16:11:39;;;;;;;0.00;0.00;;;;;;;;;;6275357;22;19992;-92
2023/04/13 16:14:08;;;;;;;0.00;0.00;;;;;;;;;;6277255;22;19999;-91
2023/04/13 16:16:45;;;;;;;0.00;0.00;;;;;;;;;;6276174;22;20034;-91
2023/04/13 16:19:11;;;;;;;0.00;0.00;;;;;;;;;;6277003;22;20010;-89
2023/04/13 16:21:37;;;;;;;0.08;0.08;;;;;;;;;;6275894;22;19991;-90
2023/04/13 16:24:05;;;;;;;0.00;0.00;;;;;;;;;;6276087;22;19983;-89
2023/04/13 16:26:31;;;;;;;0.00;0.00;;;;;;;;;;6276008;22;19996;-91
2023/04/13 16:28:57;;;;;;;0.00;0.00;;;;;;;;;;6275634;22;20078;-91
2023/04/13 16:31:23;;;;;;;0.00;0.00;;;;;;;;;;6276671;22;19996;-90
2023/04/13 16:33:48;;;;;;;0.00;0.00;;;14.20;96.30;;;;;;6275717;22;20003;-91
2023/04/13 16:36:14;;;;;;;0.00;0.00;;;14.60;94.10;;;;;;6273845;22;20067;-90
2023/04/13 16:38:40;;;;;;;0.00;0.00;;;;;;;;;;6275879;22;20040;-90
2023/04/13 16:41:06;;;;;;;0.00;0.00;;;14.60;92.40;;;;;;6274631;22;20016;-89
2023/04/13 16:43:32;;;;;;;0.00;0.00;;;;;;;;;;6275452;22;20046;-91
2023/04/13 16:45:57;;;;;;;0.00;0.00;;;;;;;;;;6275904;22;20011;-89
2023/04/13 16:48:25;;;;;;;0.00;0.00;;;14.40;92.30;;;;;;6275719;22;19992;-91
2023/04/13 16:51:01;;;;;;;0.00;0.00;;;14.40;92.90;;;;;;6273723;22;20009;-93
2023/04/13 16:53:27;;;;;;;0.00;0.00;;;;;;;;;;6272369;22;20004;-92
2023/04/13 16:55:55;;;;;;;0.00;0.00;;;;;;;;;;6272623;22;20042;-91
2023/04/13 16:58:21;;;;;;;0.00;0.00;;;;;;;;;;6274288;22;20003;-90
2023/04/13 17:00:47;;;;;;;0.00;0.00;;;;;;;;;;6275509;22;20063;-90
2023/04/13 17:03:13;;;;;;;0.00;0.00;;;;;;;;;;6275429;22;19988;-89
2023/04/13 17:05:39;;;;;;;0.00;0.00;;;;;;;;;;6275649;22;20079;-91
2023/04/13 17:08:07;;;;;;;0.00;0.00;;;13.80;91.00;;;;;;6275823;22;20024;-91
2023/04/13 17:10:33;;;;;;;0.00;0.00;;;13.60;89.20;;;;;;6274514;22;20034;-89
2023/04/13 17:13:00;;;;;;;0.00;0.00;;;;;;;;;;6275689;22;20038;-90
2023/04/13 17:15:26;;;;;;;0.00;0.00;;;;;;;;;;6275478;22;20011;-92
2023/04/13 17:17:52;;;;;;;0.00;0.00;;;;;;;;;;6275774;22;20086;-88
2023/04/13 17:20:18;;;;;;;0.00;0.00;;;;;;;;;;6274128;22;20000;-89
2023/04/13 17:22:44;;;;;;;0.00;0.00;;;;;;;;;;6273463;22;19996;-90
2023/04/13 17:25:10;;;;;;;0.00;0.00;;;;;;;;;;6275040;22;20067;-91
2023/04/13 17:27:36;;;;;;;0.00;0.00;;;;;;;;;;6275030;22;20003;-92
2023/04/13 17:30:02;;;;;;;0.03;0.03;;;13.10;93.10;;;;;;6274813;22;20080;-91
2023/04/13 17:32:28;;;;;;;0.00;0.00;;;;;;;;;;6271314;22;20027;-93
2023/04/13 17:34:56;;;;;;;0.00;0.00;;;;;;;;;;6271409;22;19992;-92
2023/04/13 17:37:23;;;;;;;0.00;0.00;;;;;;;;;;6270572;22;20007;-91
2023/04/13 17:39:50;;;;;;;0.00;0.00;;;;;;;;;;6270788;22;20392;-92
2023/04/13 17:42:16;;;;;;;0.00;0.00;;;;;;;;;;6271236;22;20000;-92
2023/04/13 17:44:42;;;;;;;0.00;0.00;;;12.60;93.90;;;;;;6270156;22;20023;-88
2023/04/13 17:47:08;;;;;;;0.00;0.00;;;;;;;;;;6268407;22;20008;-90
2023/04/13 17:49:34;;;;;;;0.00;0.00;;;12.60;94.80;;;;;;6265403;22;20030;-90
2023/04/13 17:52:00;;;;;;;0.00;0.00;;;12.40;95.70;;;;;;6261892;22;20003;-91
2023/04/13 17:54:26;;;;;;;0.00;0.00;;;;;;;;;;6263643;22;20000;-92
2023/04/13 17:56:52;;;;;;;0.00;0.00;;;12.40;95.60;;;;;;6261693;22;20073;-90
2023/04/13 17:59:18;;;;;;;0.00;0.00;;;;;;;;;;6265595;22;20513;-92
2023/04/13 18:01:45;;;;;;;0.00;0.00;;;;;;;;;;6265178;22;19999;-93
2023/04/13 18:04:11;;;;;;;0.00;0.00;;;11.80;97.20;;;;;;6266058;22;20014;-91
2023/04/13 18:06:38;;;;;;;0.10;0.10;;;;;;;;;;6263282;22;20035;-92
2023/04/13 18:09:04;;;;;;;0.00;0.00;;;;;;;;;;6266599;22;20187;-93
2023/04/13 18:11:30;;;;;;;0.00;0.00;;;;;;;;;;6265613;22;20031;-92
2023/04/13 18:13:55;;;;;;;0.00;0.00;;;;;;;;;;6266404;22;20019;-90
2023/04/13 18:16:21;;;;;;;0.00;0.00;;;;;;;;;;6264104;22;20091;-92
2023/04/13 18:18:48;;;;;;;0.00;0.00;;;;;;;;;;6264457;22;20008;-92
2023/04/13 18:21:15;;;;;;;0.00;0.00;;;11.20;98.40;;;;;;6261744;22;20090;-92
2023/04/13 18:23:41;;;;;;;0.00;0.00;;;;;;;;;;6265063;22;20067;-93
2023/04/13 18:26:07;;;;;;;0.00;0.00;;;;;;;;;;6259846;22;20039;-92
2023/04/13 18:28:35;;;;;;;0.00;0.00;;;11.00;98.70;;;;;;6261960;22;20015;-92
2023/04/13 18:31:01;;;;;;;0.00;0.00;;;10.90;98.70;;;;;;6260350;22;20000;-91
2023/04/13 18:33:28;;;;;;;0.00;0.00;;;10.90;98.40;;;;;;6266110;22;20000;-91
2023/04/13 18:35:54;;;;;;;0.00;0.00;;;;;;;;;;6271777;22;20011;-92
2023/04/13 18:38:20;;;;;;;0.00;0.00;;;;;;;;;;6269759;22;20011;-93
2023/04/13 18:40:47;;;;;;;0.10;0.10;;;;;;;;;;6269121;22;20055;-92
2023/04/13 18:43:13;;;;;;;0.10;0.10;;;;;;;;;;6267736;22;20027;-92
2023/04/13 18:45:39;;;;;;;0.00;0.00;;;;;;;;;;6267609;22;20008;-91
2023/04/13 18:48:08;;;;;;;0.00;0.00;;;;;;;;;;6266832;22;20027;-92
2023/04/13 18:50:34;;;;;;;0.10;0.10;;;;;;;;;;6259417;22;20014;-91
2023/04/13 18:53:00;;;;;;;0.10;0.10;;;;;;;;;;6267733;22;19999;-92
2023/04/13 18:55:27;;;;;;;0.00;0.00;;;;;;;;;;6268746;22;20031;-91
2023/04/13 18:57:53;;;;;;;0.10;0.10;;;;;;;;;;6269409;22;19983;-89
2023/04/13 19:00:19;;;;;;;0.00;0.00;;;9.60;99.90;;;;;;6268124;22;20008;-93
2023/04/13 19:02:47;;;;;;;0.10;0.10;;;9.60;99.90;;;;;;6266081;22;20557;-92
2023/04/13 19:05:14;;;;;;;0.10;0.10;;;;;;;;;;6267672;22;20102;-92
2023/04/13 19:07:41;;;;;;;0.00;0.00;;;;;;;;;;6263354;22;20057;-93
2023/04/13 19:10:07;;;;;;;0.03;0.03;;;9.50;99.90;;;;;;6263274;22;20000;-92
2023/04/13 19:12:33;;;;;;;0.10;0.10;;;9.40;99.90;;;;;;6262447;22;20003;-92
2023/04/13 19:14:59;;;;;;;0.00;0.00;;;;;;;;;;6261741;22;20006;-90
2023/04/13 19:17:28;;;;;;;0.10;0.10;;;;;;;;;;6260691;22;19996;-92
2023/04/13 19:19:54;;;;;;;0.10;0.10;;;;;;;;;;6260400;22;20004;-92
2023/04/13 19:22:20;;;;;;;0.10;0.10;;;;;;;;;;6260489;22;20035;-93
2023/04/13 19:24:46;;;;;;;0.10;0.10;;;9.10;99.90;;;;;;6255971;22;20003;-92
2023/04/13 19:27:11;;;;;;;0.10;0.10;;;9.00;99.90;;;;;;6258595;22;20012;-92
2023/04/13 19:29:39;;;;;;;0.10;0.10;;;;;;;;;;6260103;22;20059;-93
2023/04/13 19:32:05;;;;;;;0.00;0.00;;;8.90;99.90;;;;;;6255163;22;19995;-94
2023/04/13 19:34:32;;;;;;;0.10;0.10;;;;;;;;;;6258109;22;20006;-93
2023/04/13 19:36:58;;;;;;;0.10;0.10;;;8.80;99.90;;;;;;6256651;22;20003;-90
2023/04/13 19:39:23;;;;;;;0.00;0.00;;;8.70;99.90;;;;;;6261943;22;20003;-92
2023/04/13 19:41:49;;;;;;;0.10;0.10;;;8.60;99.90;;;;;;6263612;22;20441;-93
2023/04/13 19:44:15;;;;;;;0.10;0.10;;;8.50;99.90;;;;;;6266988;22;20008;-93
2023/04/13 19:46:41;;;;;;;0.10;0.10;;;;;;;;;;6269680;22;20012;-93
2023/04/13 19:49:07;;;;;;;0.03;0.03;;;;;;;;;;6269223;22;20000;-94
2023/04/13 19:51:34;;;;;;;0.10;0.10;;;;;;;;;;6268300;22;20004;-93
2023/04/13 19:54:01;;;;;;;0.10;0.10;;;;;;;;;;6266343;22;20000;-93
2023/04/13 19:56:29;;;;;;;0.10;0.10;;;8.00;99.90;;;;;;6267120;22;20025;-93
2023/04/13 19:58:55;;;;;;;0.10;0.10;;;;;;;;;;6263980;22;20090;-92
2023/04/13 20:01:21;;;;;;;0.10;0.10;;;;;;;;;;6268300;22;20004;-95
2023/04/13 20:03:47;;;;;;;0.10;0.10;;;;;;;;;;6263312;22;20037;-94
2023/04/13 20:06:16;;;;;;;0.10;0.10;;;;;;;;;;6260044;22;20438;-93
2023/04/13 20:08:43;;;;;;;0.10;0.10;;;8.30;99.90;;;;;;6269443;22;20018;-96
2023/04/13 20:11:09;;;;;;;0.10;0.10;;;;;;;;;;6265407;22;20000;-95
2023/04/13 20:13:35;;;;;;;0.10;0.10;;;8.20;99.90;;;;;;6260822;22;20071;-93
2023/04/13 20:16:00;;;;;;;0.10;0.10;;;8.20;99.90;;;;;;6261827;22;20000;-93
2023/04/13 20:18:26;;;;;;;0.10;0.10;;;8.20;99.90;;;;;;6260687;22;20448;-92
2023/04/13 20:20:52;;;;;;;0.10;0.10;;;8.20;99.90;;;;;;6260665;22;20135;-93
2023/04/13 20:23:18;;;;;;;0.10;0.10;;;;;;;;;;6261491;22;20004;-93
2023/04/13 20:25:43;;;;;;;0.10;0.10;;;8.10;99.90;;;;;;6261048;22;20000;-93
2023/04/13 20:28:10;;;;;;;0.10;0.10;;;;;;;;;;6260601;22;20034;-92
2023/04/13 20:30:38;;;;;;;0.10;0.10;;;8.00;99.90;;;;;;6288163;22;20495;-95
2023/04/13 20:33:04;;;;;;;0.10;0.10;;;8.10;99.90;;;;;;6261535;22;20050;-93
2023/04/13 20:35:31;;;;;;;0.10;0.10;;;8.00;99.90;;;;;;6261387;22;20007;-93
2023/04/13 20:38:00;;;;;;;0.10;0.10;;;;;;;;;;6261910;22;20042;-94
2023/04/13 20:40:26;;;;;;;0.10;0.10;;;8.00;99.90;;;;;;6259971;22;20164;-94
2023/04/13 20:42:52;;;;;;;0.10;0.10;;;8.40;99.90;;;;;;6235593;22;20111;-93
2023/04/13 20:45:19;;;;;;;0.10;0.10;;;7.90;99.90;;;;;;6259554;22;20008;-94
2023/04/13 20:47:49;;;;;;;0.10;0.10;;;;;;;;;;6260105;22;20019;-93
2023/04/13 20:50:22;;;;;;;0.10;0.10;;;7.50;99.90;;;;;;6259238;22;19996;-94
2023/04/13 20:52:49;;;;;;;0.10;0.10;;;;;;;;;;6260923;22;20030;-93
2023/04/13 20:55:17;;;;;;;0.10;0.10;;;7.20;99.90;;;;;;6260827;22;20000;-94
2023/04/13 20:57:44;;;;;;;0.10;0.10;;;;;;;;;;6259750;22;20059;-94
2023/04/13 21:00:12;;;;;;;0.10;0.10;;;;;;;;;;6260607;22;20077;-94
2023/04/13 21:02:38;;;;;;;0.10;0.10;;;;;;;;;;6260786;22;20063;-95
2023/04/13 21:05:05;;;;;;;0.10;0.10;;;;;;;;;;6260692;22;20062;-94
2023/04/13 21:07:30;;;;;;;0.10;0.10;;;7.30;99.90;;;;;;6260368;22;20003;-94
2023/04/13 21:09:56;;;;;;;0.10;0.10;;;7.20;99.90;;;;;;6260696;22;20015;-93
2023/04/13 21:12:22;;;;;;;0.10;0.10;;;;;;;;;;6260873;22;20014;-94
2023/04/13 21:14:48;;;;;;;0.10;0.10;;;7.00;99.90;;;;;;6260408;22;20059;-95
2023/04/13 21:17:13;;;;;;;0.10;0.10;;;7.00;99.90;;;;;;6261485;22;20000;-92
2023/04/13 21:19:39;;;;;;;0.10;0.10;;;7.00;99.90;;;;;;6258096;22;20004;-95
2023/04/13 21:22:05;;;;;;;0.10;0.10;;;;;;;;;;6259774;22;20007;-94
2023/04/13 21:24:31;;;;;;;0.10;0.10;;;;;;;;;;6259653;22;20008;-94
2023/04/13 21:26:57;;;;;;;0.10;0.10;;;;;;;;;;6260595;22;20035;-91
2023/04/13 21:29:23;;;;;;;0.10;0.10;;;;;;;;;;6259848;22;20006;-95